Burgos, Spain

3:06 AM CEST on October 25, 2014 (GMT +0200)
Foronda | Change Station
CLOSE
Current Station
Airport
Location: Vitoria,
Elevation: 1673 ft
Nearby Weather Stations

Elev 1673 ft 42.88 °N, 2.72 °W | Updated 6 minutes ago

Clear
Clear
50 °F
Feels Like 50 °F
N
2
Wind Variable Wind from ENE

Today
High -- | Low -- °F
--% Chance of Precip.
Yesterday
High -- | Low -- °F
Precip. -- in
8:38 AM 7:17 PM
New Moon, 1% visible
Pressure 30.15 in
Visibility -9999.0 miles
Clouds
Dew Point 46 °F
Humidity 87%
Rainfall 0.00 in
Snow Depth Not available.
UV Not available.
Pollen Not available.
Air Quality Not available.
Flu Activity Not available.
METAR LEVT 250100Z 06002KT CAVOK 10/08 Q1021

More Conditions Fewer Conditions

Pressure 30.15 in
Visibility -9999.0 miles
Clouds
Dew Point 46 °F
Humidity 87%
Rainfall 0.00 in
Snow Depth Not available.
UV Not available.
Pollen Not available.
Air Quality Not available.
Flu Activity Not available.
METAR LEVT 250100Z 06002KT CAVOK 10/08 Q1021

More Conditions Fewer Conditions

10-Day Weather Forecast

Almanac

Astronomy

Oct. 25, 2014 Rise Set
Actual Time 8:38 AM CEST 7:17 PM CEST
Civil Twilight 8:10 AM CEST 7:46 PM CEST
Nautical Twilight 7:37 AM CEST 8:19 PM CEST
Astronomical Twilight 7:04 AM CEST 8:51 PM CEST
Moon 10:04 AM CEST 8:28 PM CEST
Length of Visible Light 11h 36m
Length of Day
10h 38m
Tomorrow will be 2m 39s shorter.
New Moon, 1% of the Moon is Illuminated
Oct 24
New Moon
Oct 30
First Quarter
Nov 6
Full
Nov 14
Last Quarter
Nov 22
New

Yesterday's Extremes

Country Highs Country Lows

Community

WunderPhotos

Upload Photos

1,764,737 photos uploaded!

WunderBlogs® & News

Nearby

Snow Depth

Not available.

Earthquake Activity

City Distance Mag. Time & Date
No recent earthquake activity has been reported nearby.
Minimum magnitude displayed is 2.5.

Coastal Water Temperatures

Place Temperature
No Stations Reporting

Nearby Weather Stations